San Diego Classic - Holiday Cup - Race 3 - Casa Grande AZ - 308 Miles

Station: Casa Grande AZ - A Race

Distance: 308 Miles

Release: 30-Nov-2019 07:00

Weather Release: Clear    Arrival: Partly Cloudy

Wind at Release: Calm     Wind at Arrival: Calm

Temp at Release: 37°    Temp at Arrival: 61°

Lofts: 77

Birds: 267

Clocked: 193

Good Luck to Everyone!
Drops Pos Breeder Pigeon Name Color Sex Ent Arrival Speed To Win Elg PdRaceAvg Speed
14335 1 Mesopotamia Loft - MN 11351-AU19-ARPU PATTI BB H 1 13:02:59.60 1493.361 00:00:00 Missing
14335 2 Team Phoenix - AZ 2039-AU19-SUNB BCWF H 1 13:03:00.20 1493.320 00:00:01 Yes
14335 3 Team Phoenix - AZ 1437-AU19-SUNB BC H 2 13:03:02.30 1493.176 00:00:03 Yes
- 1-DROP 13:03:01.00 1492.176
1900 4 Duane Gragg - CA 0103-AU19-AUB BB H 1 13:03:27.30 1491.464 00:00:28 Yes
1900 5 O & L De Vries - ON 3027-CU19-OL BB H 1 13:03:27.80 1491.430 00:00:28 Yes
1900 6 Daniel Chang - CA 10772-AU19-JEDD BB H 1 13:03:28.30 1491.395 00:00:29 Missing
1900 7 Ron Pairan - OH 0460-AU19-LFO BB H 1 13:03:28.40 1491.389 00:00:29 Yes
1900 8 Los Banditos - CA 1027-AU19-OAKS BC H 1 13:03:30.60 1491.238 00:00:31 Yes
1900 9 Mike Kelly - CA 3345-AU19-ARC BB H 1 13:03:31.10 1491.204 00:00:32 Missing
1900 9 Ledet-Gutrz - LA 19039-AU19-LG BC H 1 13:03:31.10 1491.204 00:00:32 Yes
1900 11 Milestone Loft - CA 27704-AU19-JEDD BB H 1 13:03:31.90 1491.149 00:00:32 Yes
1900 12 Team Phoenix - AZ 0222-AU19-SUNB BB H 3 13:03:33.10 1491.067 00:00:34 Yes
1900 13 Drama Queen Loft - TX 0933-AU19-GCI BB H 1 13:03:42.30 1490.439 00:00:43 Yes
- 2-DROP 13:03:41.00 1489.439
520 14 Relinski & Schilling - IN 5013-AU19-HAMM BC H 1 13:04:13.50 1488.311 00:01:14 Yes
520 15 Sterchi & Bieche - CA 0992-AU19-SR BB H 1 13:04:15.90 1488.147 00:01:16 Yes
520 16 Genesis Syndicate Loft - AZ 0108-AU19-GENS BB H 1 13:04:19.10 1487.930 00:01:19 Yes
520 17 Michael Groe - CA 0056-AU19-JEDD 1100726x11503 BC H 1 13:05:28.40 1483.227 00:02:29 Yes
- 3-DROP 13:05:27.00 1482.227
250 18 APC Loft - TX 19352-AU19-APC BC H 1 13:08:55.20 1469.370 00:05:56 Missing
250 19 Dan & Greg Coury - AZ 0346-AU19-AONE irsh503+peg634 DCWF H 1 13:08:55.70 1469.337 00:05:56 Missing
250 20 Sterchi & Bieche - CA 9222-AU19-BIEC BC H 2 13:09:00.30 1469.032 00:06:01 Missing
250 21 Milestone Loft - CA 27725-AU19-JEDD BB H 2 13:09:00.80 1468.998 00:06:01 Yes
250 21 Dustin Maxfield - UT 7774-AU19-OGN DC H 1 13:09:00.80 1468.998 00:06:01 Missing
250 23 Bryan & Domenick - PA 0796-AU19-IVAC BB H 1 13:09:01.40 1468.959 00:06:02 Yes
250 23 El Dorado Lofts Canada - BC 1975-CU19-CU El Corban BBWF H 1 13:09:01.40 1468.959 00:06:02 Yes
250 25 Ledet-Gutrz - LA 19057-AU19-LG BBSP H 2 13:09:02.50 1468.886 00:06:03 Yes
250 26 Milestone Loft - CA 27730-AU19-JEDD BB H 3 13:09:03.10 1468.846 00:06:04 Yes
250 27 APC Loft - TX 19344-AU19-APC BB H 2 13:09:03.60 1468.813 00:06:04 Yes
250 28 Los Banditos - CA 1022-AU19-OAKS BB H 2 13:09:04.10 1468.779 00:06:05 Yes
250 29 Carlton Kroese-Crazy Al - CO 0421-AU19-BARK BB H 1 13:09:04.70 1468.740 00:06:05 Yes
250 30 El Dorado Lofts Canada - BC 1963-CU19-CU El Caractacus DKSP H 2 13:09:05.40 1468.693 00:06:06 Yes
250 31 Sam Fikhman - CA 0740-AU19-MHL BBWF H 1 13:09:06.10 1468.647 00:06:07 Missing
250 32 Milestone Loft - CA 27715-AU19-JEDD BB H 4 13:09:06.90 1468.594 00:06:07 Yes
250 33 Tom Cano Family - CA 0958-AU19-SD BB H 1 13:09:22.20 1467.580 00:06:23 Yes
- 4-DROP 13:09:21.00 1466.580
34 Hawaiian Express - CA 0006-AU19-HE BC H 1 13:13:49.80 1450.071 00:10:50 Yes
35 C L & Patty Gage - TX 0666-AU19-DEN BBSP H 1 13:13:51.10 1449.987 00:10:52 Yes
36 Michael Groe - CA 0055-AU19-JEDD 157x2799 BB H 2 13:13:53.50 1449.832 00:10:54 Yes
37 Carney/Kravchuck - CT 2212-IF19-CC DC H 1 13:13:54.80 1449.748 00:10:55 Yes
38 Sandstrom Brothers Loft - MN 0064-AU19-SBL BC H 1 13:13:55.30 1449.715 00:10:56 Yes
39 Barry Venn - WY 63036-AU19-ARPU SIL H 1 13:14:03.20 1449.205 00:11:04 Yes
40 Two-Be-Won - NV 19031-AU19-TBW 793-13032 DC H 1 13:14:56.80 1445.752 00:11:57 Yes
- 5-DROP 13:14:55.00 1444.752
41 O & L De Vries - ON 3054-CU19-OL UNKN H 2 13:16:24.80 1440.119 00:13:25 Yes
42 Mc Knight & Mellinger - CA 0747-AU19-JEDD BB H 1 13:16:25.70 1440.062 00:13:26 Yes
43 Sterchi & Bieche - CA 0988-AU19-SR BB H 3 13:18:01.60 1433.973 00:15:02 Yes
44 Mike Chastang - CA 1604-AU19-SD BBWF H 1 13:18:03.20 1433.872 00:15:04 Yes
45 Michael Groe - CA 0068-AU19-JEDD 10752x12018 BB H 3 13:18:03.50 1433.853 00:15:04 Yes
45 J & M Partridge Loft - CA 1748-AU19-PASO DC H 1 13:18:03.50 1433.853 00:15:04 Yes
45 Genesis Syndicate Loft - AZ 0865-AU19-GENS BBSP H 2 13:18:03.50 1433.853 00:15:04 Yes
48 Sin City Classic - NV 19455-AU19-JEDD BB H 1 13:18:05.20 1433.745 00:15:06 Yes
48 Milo Garver - CA 1302-AU19-SD RC H 1 13:18:05.20 1433.745 00:15:06 Yes
50 J & M Partridge Loft - CA 1644-AU19-PASO BC H 2 13:18:05.70 1433.714 00:15:06 Yes
51 Michael Groe - CA 0058-AU19-JEDD 653 BB H 4 13:18:06.20 1433.682 00:15:07 Yes
52 Alma Missiles Castro - AZ 24064-AU19-MISS BB H 1 13:18:06.30 1433.676 00:15:07 Yes
53 O & L De Vries - ON 3028-CU19-OL BB H 3 13:18:07.60 1433.594 00:15:08 Yes
54 Missiles Castro - AZ 24024-AU19-MISS DCSP H 1 13:18:09.50 1433.474 00:15:10 Yes
55 Missiles Castro - AZ 24031-AU19-MISS BC H 2 13:18:10.70 1433.398 00:15:11 Yes
56 Bryan & Domenick - PA 0798-AU19-IVAC BC H 2 13:18:17.00 1433.000 00:15:17 Yes
57 44th Loft - AR 12960-AU19-JEDD BB H 1 13:19:29.90 1428.412 00:16:30 Yes
58 Mike Belus - CA 0704-AU19-BPRC Check Is In The Mail BC H 1 13:19:30.60 1428.368 00:16:31 Yes
59 El Dorado Lofts Canada - BC 1980-CU19-CU El Delphini BBWF H 3 13:20:40.10 1424.022 00:17:41 Yes
60 Paco Loft - CA 1907-AU19-PACO DC H 1 13:20:40.50 1423.997 00:17:41 Yes
61 Mesopotamia Loft - MN 11364-AU19-ARPU BBWF H 2 13:20:40.80 1423.978 00:17:41 Yes
62 Carlton Kroese-Crazy Al - CO 0418-AU19-BARK BB H 2 13:20:41.30 1423.947 00:17:42 Yes
63 Thormod/Blankenship - NV 31881-AU19-AA Your Bet BC H 1 13:20:43.50 1423.810 00:17:44 Yes
64 Burrill Family Loft - TX 14531-AU19-AA TEXAS LIGHTNING II BB H 1 13:20:44.50 1423.748 00:17:45 Yes
65 Dehesa Valley Classic - CA 1667-AU19-SD 16106/1455 BBWF H 1 13:20:47.10 1423.585 00:17:48 Yes
66 Kessler Family Loft - OR 0045-AU19-NRK Vk 502 BB H 1 13:20:47.70 1423.548 00:17:48 Yes
67 Hawaiian Express - CA 0005-AU19-HE BC H 2 13:20:49.20 1423.455 00:17:50 Yes
68 Tim Brandon - CA 3872-AU19-HP BBWF H 1 13:20:49.70 1423.424 00:17:50 Yes
69 Ancona Loft - CA 0210-AU19-ANCO BC H 1 13:20:51.50 1423.311 00:17:52 Yes
70 APC Loft - TX 19258-AU19-APC BB H 3 13:20:51.90 1423.286 00:17:52 Yes
71 Daniel Chang - CA 10775-AU19-JEDD BB H 2 13:20:52.20 1423.268 00:17:53 Yes
72 Thormod/Blankenship - NV 29382-AU19-AA Keno BC H 2 13:20:53.80 1423.168 00:17:54 Yes
73 C L & Patty Gage - TX 0664-AU19-DEN BBSP H 2 13:20:55.80 1423.044 00:17:56 Yes
74 Jenkins Racing - CA 15384-AU19-JEDD 17875 / 221 BC H 1 13:20:57.10 1422.963 00:17:57 Yes
75 Daniel Chang - CA 10776-AU19-JEDD BB H 3 13:21:03.70 1422.552 00:18:04 Yes
76 B.C. Weaver - FL 20992-AU19-ARPU BLUE CHECK HEN BC H 1 13:22:01.90 1418.940 00:19:02 Yes
77 Mike Chastang - CA 1605-AU19-SD BB H 2 13:22:02.40 1418.909 00:19:03 Yes
78 Thormod/Blankenship - NV 31811-AU19-JEDD Vegas Baby BCSP H 3 13:22:04.40 1418.785 00:19:05 Missing
79 Drama Queen Loft - TX 0936-AU19-GCI BB H 2 13:23:54.70 1411.991 00:20:55 Yes
80 Ron Pairan - OH 0464-AU19-LFO BC H 2 13:23:57.00 1411.851 00:20:57 Yes
81 Tom Cano Family - CA 0908-AU19-SD BB H 2 13:29:02.20 1393.391 00:26:03 Yes
82 Missiles Castro - AZ 24029-AU19-MISS BC H 3 13:29:39.70 1391.156 00:26:40 Yes
83 Kessler Family Loft - OR 0044-AU19-NRK 180 BB H 2 13:34:07.70 1375.390 00:31:08 Yes
84 Two-Be-Won - NV 19035-AU19-TBW 18170-4094374 BB H 2 13:34:24.20 1374.431 00:31:25 Yes
85 J & M Partridge Loft - CA 1641-AU19-PASO SLT H 3 13:35:04.20 1372.111 00:32:05 Yes
86 Bryan & Domenick - PA 0786-AU19-IVAC BC H 3 13:36:32.00 1367.048 00:33:32 Yes
87 Carney/Kravchuck - CT 31691-AU19-AA BBSP H 2 13:36:33.60 1366.956 00:33:34 Yes
88 Mike Belus - CA 0701-AU19-BPRC Im The One RC H 2 13:36:45.30 1366.284 00:33:46 Yes
89 Dan & Greg Coury - AZ 15910-AU19-JEDD 1223/1314 BB H 2 13:36:49.30 1366.054 00:33:50 Yes
90 Thormod/Blankenship - NV 29383-AU19-AA Flushyou BB H 4 13:39:02.50 1358.455 00:36:03 Yes
91 J. Smith & U. Ebright - CA 29512-AU19-JEDD BB H 1 13:47:40.60 1329.681 00:44:41 Yes
92 Dan Lionello - CA 0065-AU19-SB BB H 1 13:48:18.50 1327.624 00:45:19 Yes
92 Quest Syndicate - TX 9179-AU19-QS BB H 1 13:48:18.50 1327.624 00:45:19 Yes
94 Daniel Chang - CA 10774-AU19-JEDD BC H 4 13:48:19.90 1327.548 00:45:20 Yes
95 Humberto Munoz - EM 24972-AU19-MEX BBSP H 1 13:48:20.30 1327.527 00:45:21 Yes

There are 173 bird records

Note: These Race Results are unofficial and subject to change until verified by the Race Committee and declared final.